Time;durP1;ratioP1;P1;durP2;ratioP2;P2;SDS_P1;SDS_P2;PMS_P1;PMS_P2;Temp;Humidity;BMP_temperature;BMP_pressure;BME280_temperature;BME280_humidity;BME280_pressure;Samples;Min_cycle;Max_cycle;Signal;HPM_P1;HPM_P2
2020/12/08 00:00:57;;;;;;;20.63;13.13;;;3.00;99.90;;;;;;5081969;28;20205;-75
2020/12/08 00:03:23;;;;;;;19.50;12.77;;;3.00;99.90;;;;;;5084034;28;20192;-75
2020/12/08 00:05:48;;;;;;;16.87;11.57;;;3.00;99.90;;;;;;5080085;28;20183;-75
2020/12/08 00:08:14;;;;;;;18.80;11.80;;;3.00;99.90;;;;;;5082050;28;20185;-75
2020/12/08 00:10:40;;;;;;;21.00;12.43;;;3.00;99.90;;;;;;5082465;28;20195;-75
2020/12/08 00:13:05;;;;;;;19.00;11.40;;;3.00;99.90;;;;;;5080284;28;20882;-75
2020/12/08 00:15:31;;;;;;;19.07;12.57;;;3.00;99.90;;;;;;5080951;28;20180;-75
2020/12/08 00:17:56;;;;;;;21.37;12.40;;;3.00;99.90;;;;;;5077547;28;20193;-75
2020/12/08 00:20:22;;;;;;;20.37;11.90;;;3.10;99.90;;;;;;5078421;28;20203;-75
2020/12/08 00:22:48;;;;;;;17.10;10.90;;;3.10;99.90;;;;;;5081100;28;20250;-75
2020/12/08 00:25:13;;;;;;;18.80;12.60;;;3.10;99.90;;;;;;5079731;28;20256;-75
2020/12/08 00:27:40;;;;;;;22.77;11.90;;;3.10;99.90;;;;;;5079733;28;20462;-75
2020/12/08 00:30:13;;;;;;;18.57;12.00;;;3.10;99.90;;;;;;5082229;28;20287;-75
2020/12/08 00:32:40;;;;;;;16.93;11.40;;;3.00;99.90;;;;;;5079702;28;20440;-75
2020/12/08 00:35:07;;;;;;;21.97;12.87;;;3.10;99.90;;;;;;5080077;28;20455;-75
2020/12/08 00:37:34;;;;;;;18.30;11.90;;;3.10;99.90;;;;;;5081735;28;20416;-76
2020/12/08 00:39:59;;;;;;;16.10;12.07;;;3.10;99.90;;;;;;5080319;28;20447;-75
2020/12/08 00:42:25;;;;;;;18.60;12.20;;;3.10;99.90;;;;;;5080038;28;20467;-75
2020/12/08 00:44:51;;;;;;;18.83;11.10;;;3.10;99.90;;;;;;5082547;28;20217;-75
2020/12/08 00:47:16;;;;;;;22.90;13.67;;;3.10;99.90;;;;;;5087847;28;20193;-75
2020/12/08 00:49:42;;;;;;;20.53;11.80;;;3.10;99.90;;;;;;5082700;28;20295;-75
2020/12/08 00:52:07;;;;;;;18.93;12.47;;;3.10;99.90;;;;;;5078351;28;20647;-75
2020/12/08 00:54:33;;;;;;;19.40;13.03;;;3.10;99.90;;;;;;5081293;28;20262;-75
2020/12/08 00:56:58;;;;;;;21.13;12.93;;;3.10;99.90;;;;;;5080493;28;20188;-75
2020/12/08 00:59:24;;;;;;;20.13;13.00;;;3.10;99.90;;;;;;5082158;28;20291;-75
2020/12/08 01:01:49;;;;;;;19.03;12.27;;;3.20;99.90;;;;;;5079819;28;20581;-75
2020/12/08 01:04:15;;;;;;;17.60;11.57;;;3.20;99.90;;;;;;5079034;28;20188;-75
2020/12/08 01:06:41;;;;;;;17.33;12.43;;;3.20;99.90;;;;;;5081648;28;20677;-75
2020/12/08 01:09:07;;;;;;;17.80;12.37;;;3.10;99.90;;;;;;5080176;28;20189;-75
2020/12/08 01:11:43;;;;;;;16.10;11.63;;;3.10;99.90;;;;;;5080732;28;20403;-75
2020/12/08 01:14:13;;;;;;;18.37;12.20;;;3.20;99.90;;;;;;5080145;28;20825;-75
2020/12/08 01:16:39;;;;;;;19.40;13.20;;;3.20;99.90;;;;;;5080416;28;20420;-75
2020/12/08 01:19:05;;;;;;;18.17;12.77;;;3.20;99.90;;;;;;5079616;28;20844;-75
2020/12/08 01:21:31;;;;;;;23.50;13.50;;;3.20;99.90;;;;;;5080314;28;20827;-75
2020/12/08 01:23:56;;;;;;;25.43;12.60;;;3.20;99.90;;;;;;5080685;28;20423;-75
2020/12/08 01:26:26;;;;;;;22.23;13.20;;;3.20;99.90;;;;;;5079284;28;20179;-75
2020/12/08 01:28:52;;;;;;;19.63;13.00;;;3.30;99.90;;;;;;5081018;28;20727;-74
2020/12/08 01:31:18;;;;;;;21.17;13.03;;;3.30;99.90;;;;;;5080914;28;20551;-75
2020/12/08 01:33:44;;;;;;;19.23;12.80;;;3.20;99.90;;;;;;5083432;28;20518;-75
2020/12/08 01:36:09;;;;;;;24.03;13.80;;;3.30;99.90;;;;;;5080029;28;20667;-75
2020/12/08 01:38:35;;;;;;;23.73;14.00;;;3.20;99.90;;;;;;5079913;28;20490;-75
2020/12/08 01:41:01;;;;;;;20.60;13.60;;;3.30;99.90;;;;;;5080319;28;20219;-75
2020/12/08 01:43:27;;;;;;;28.00;15.93;;;3.20;99.90;;;;;;5080400;28;20400;-75
2020/12/08 01:45:53;;;;;;;21.83;14.67;;;3.20;99.90;;;;;;5080816;28;21236;-75
2020/12/08 01:48:19;;;;;;;25.17;16.00;;;3.30;99.90;;;;;;5086072;28;20181;-75
2020/12/08 01:50:44;;;;;;;22.77;14.00;;;3.30;99.90;;;;;;5078545;28;20286;-75
2020/12/08 01:53:10;;;;;;;24.93;13.90;;;3.30;99.90;;;;;;5079338;28;20826;-75
2020/12/08 01:55:40;;;;;;;27.63;15.17;;;3.30;99.90;;;;;;5077884;28;20175;-75
2020/12/08 01:58:13;;;;;;;21.73;14.67;;;3.40;99.90;;;;;;5081016;28;20176;-75
2020/12/08 02:00:38;;;;;;;23.20;14.00;;;3.30;99.90;;;;;;5081127;28;20766;-74
2020/12/08 02:03:04;;;;;;;24.93;15.17;;;3.40;99.90;;;;;;5076573;28;20484;-75
2020/12/08 02:05:29;;;;;;;26.60;15.90;;;3.30;99.90;;;;;;5080040;28;20226;-75
2020/12/08 02:07:55;;;;;;;25.60;14.40;;;3.40;99.90;;;;;;5078677;28;20196;-75
2020/12/08 02:10:20;;;;;;;26.67;16.13;;;3.40;99.90;;;;;;5082233;28;20198;-75
2020/12/08 02:12:46;;;;;;;25.00;15.03;;;3.30;99.90;;;;;;5078509;28;20182;-75
2020/12/08 02:15:11;;;;;;;25.20;16.43;;;3.30;99.90;;;;;;5082135;28;20201;-75
2020/12/08 02:17:37;;;;;;;23.23;16.10;;;3.30;99.90;;;;;;5082889;28;20190;-75
2020/12/08 02:20:04;;;;;;;25.43;14.93;;;3.30;99.90;;;;;;5084131;28;20216;-75
2020/12/08 02:22:30;;;;;;;25.83;13.77;;;3.30;99.90;;;;;;5084311;28;20203;-75
2020/12/08 02:24:55;;;;;;;26.30;15.03;;;3.30;99.90;;;;;;5081862;28;20417;-75
2020/12/08 02:27:21;;;;;;;30.23;18.00;;;3.30;99.90;;;;;;5083838;28;20255;-75
2020/12/08 02:29:46;;;;;;;24.20;15.83;;;3.30;99.90;;;;;;5080461;28;20201;-75
2020/12/08 02:32:12;;;;;;;27.50;16.47;;;3.30;99.90;;;;;;5083377;28;20197;-75
2020/12/08 02:34:37;;;;;;;24.83;15.27;;;3.20;99.90;;;;;;5083404;28;20618;-74
2020/12/08 02:37:03;;;;;;;22.70;13.93;;;3.20;99.90;;;;;;5083915;28;20185;-75
2020/12/08 02:39:28;;;;;;;29.40;16.33;;;3.20;99.90;;;;;;5084405;28;20673;-74
2020/12/08 02:41:54;;;;;;;22.07;15.27;;;3.20;99.90;;;;;;5081560;28;20248;-74
2020/12/08 02:44:20;;;;;;;25.40;15.20;;;3.10;99.90;;;;;;5085567;28;20172;-74
2020/12/08 02:46:50;;;;;;;26.40;15.17;;;3.10;99.90;;;;;;5085798;28;20184;-75
2020/12/08 02:49:17;;;;;;;26.77;15.80;;;3.10;99.90;;;;;;5081175;28;20787;-75
2020/12/08 02:51:42;;;;;;;28.47;16.83;;;3.10;99.90;;;;;;5085051;28;20465;-75
2020/12/08 02:54:08;;;;;;;26.60;14.83;;;3.10;99.90;;;;;;5081024;28;20835;-75
2020/12/08 02:56:33;;;;;;;23.30;15.50;;;3.10;99.90;;;;;;5083067;28;20188;-75
2020/12/08 02:58:59;;;;;;;26.67;16.23;;;3.10;99.90;;;;;;5082703;28;20666;-75
2020/12/08 03:01:24;;;;;;;32.97;18.10;;;3.10;99.90;;;;;;5083094;28;20572;-75
2020/12/08 03:03:50;;;;;;;25.23;15.13;;;3.10;99.90;;;;;;5082396;28;20188;-75
2020/12/08 03:06:15;;;;;;;32.40;17.90;;;3.10;99.90;;;;;;5081782;28;20178;-75
2020/12/08 03:08:41;;;;;;;29.40;17.17;;;3.10;99.90;;;;;;5081395;28;20180;-75
2020/12/08 03:11:06;;;;;;;28.97;16.80;;;3.10;99.90;;;;;;5083784;28;20261;-75
2020/12/08 03:13:32;;;;;;;28.07;16.57;;;3.10;99.90;;;;;;5082630;28;20220;-75
2020/12/08 03:15:58;;;;;;;28.87;17.23;;;3.10;99.90;;;;;;5082020;28;20182;-75
2020/12/08 03:18:23;;;;;;;43.50;18.13;;;3.00;99.90;;;;;;5083029;28;21119;-75
2020/12/08 03:20:49;;;;;;;27.23;17.07;;;3.00;99.90;;;;;;5081920;28;20200;-75
2020/12/08 03:23:14;;;;;;;34.77;19.40;;;3.00;99.90;;;;;;5082889;28;20178;-75
2020/12/08 03:25:40;;;;;;;30.37;18.67;;;3.00;99.90;;;;;;5079992;28;20183;-75
2020/12/08 03:28:05;;;;;;;30.40;18.40;;;3.00;99.90;;;;;;5082238;28;20184;-75
2020/12/08 03:30:32;;;;;;;30.03;17.87;;;2.90;99.90;;;;;;5082710;28;20204;-75
2020/12/08 03:32:58;;;;;;;31.27;18.93;;;2.90;99.90;;;;;;5087357;28;20619;-74
2020/12/08 03:35:23;;;;;;;31.47;18.83;;;2.90;99.90;;;;;;5082059;28;20499;-75
2020/12/08 03:37:49;;;;;;;39.90;19.00;;;2.90;99.90;;;;;;5081031;28;20181;-77
2020/12/08 03:40:14;;;;;;;34.00;18.10;;;2.90;99.90;;;;;;5083858;28;20196;-75
2020/12/08 03:42:40;;;;;;;38.17;19.53;;;2.90;99.90;;;;;;5081879;28;20325;-75
2020/12/08 03:45:05;;;;;;;30.77;18.43;;;2.80;99.90;;;;;;5082282;28;20182;-75
2020/12/08 03:47:31;;;;;;;33.77;18.63;;;2.80;99.90;;;;;;5085468;28;20180;-75
2020/12/08 03:49:57;;;;;;;40.87;21.50;;;2.80;99.90;;;;;;5081843;28;20204;-75
2020/12/08 03:52:22;;;;;;;36.97;18.80;;;2.70;99.90;;;;;;5079158;28;20277;-74
2020/12/08 03:54:47;;;;;;;33.10;19.53;;;2.70;99.90;;;;;;5082723;28;20199;-75
2020/12/08 03:57:13;;;;;;;33.80;19.60;;;2.70;99.90;;;;;;5082054;28;20270;-75
2020/12/08 03:59:38;;;;;;;33.80;19.30;;;2.80;99.90;;;;;;5081418;28;20199;-75
2020/12/08 04:02:04;;;;;;;33.43;18.93;;;2.70;99.90;;;;;;5082294;28;20589;-75
2020/12/08 04:04:30;;;;;;;33.03;16.97;;;2.70;99.90;;;;;;5078026;28;20609;-75
2020/12/08 04:06:55;;;;;;;26.53;17.23;;;2.70;99.90;;;;;;5083221;28;20184;-75
2020/12/08 04:09:20;;;;;;;29.20;17.83;;;2.70;99.90;;;;;;5082745;28;20181;-74
2020/12/08 04:11:46;;;;;;;30.23;18.07;;;2.60;99.90;;;;;;5079988;28;20230;-74
2020/12/08 04:14:12;;;;;;;35.70;17.40;;;2.60;99.90;;;;;;5082971;28;20886;-74
2020/12/08 04:16:37;;;;;;;34.00;18.60;;;2.50;99.90;;;;;;5081344;28;20195;-75
2020/12/08 04:19:03;;;;;;;24.60;15.50;;;2.50;99.90;;;;;;5080784;28;20193;-74
2020/12/08 04:21:29;;;;;;;34.07;19.77;;;2.40;99.90;;;;;;5081845;28;20205;-74
2020/12/08 04:24:02;;;;;;;28.33;16.67;;;2.50;99.90;;;;;;5080269;28;20319;-75
2020/12/08 04:26:30;;;;;;;34.80;19.10;;;2.40;99.90;;;;;;5080002;28;20438;-74
2020/12/08 04:28:56;;;;;;;31.60;18.07;;;2.30;99.90;;;;;;5081525;28;20422;-74
2020/12/08 04:31:21;;;;;;;26.87;16.60;;;2.30;99.90;;;;;;5081768;28;20439;-75
2020/12/08 04:33:47;;;;;;;33.10;17.03;;;2.20;99.90;;;;;;5080065;28;20446;-74
2020/12/08 04:36:17;;;;;;;28.63;17.07;;;2.10;99.90;;;;;;5081942;28;20662;-74
2020/12/08 04:38:43;;;;;;;24.57;15.27;;;2.10;99.90;;;;;;5078612;28;20192;-74
2020/12/08 04:41:10;;;;;;;33.57;19.00;;;2.00;99.90;;;;;;5080360;28;20467;-74
2020/12/08 04:43:40;;;;;;;31.03;16.93;;;2.00;99.90;;;;;;5080383;28;20430;-74
2020/12/08 04:46:07;;;;;;;29.07;15.77;;;1.90;99.90;;;;;;5079228;28;20422;-74
2020/12/08 04:48:36;;;;;;;35.40;15.27;;;1.90;99.90;;;;;;5085192;28;20907;-74
2020/12/08 04:51:01;;;;;;;28.37;16.33;;;1.80;99.90;;;;;;5081475;28;20933;-74
2020/12/08 04:53:27;;;;;;;27.13;15.20;;;1.70;99.90;;;;;;5082413;28;20421;-75
2020/12/08 04:55:52;;;;;;;26.23;16.83;;;1.70;99.90;;;;;;5078173;28;20430;-74
2020/12/08 04:58:19;;;;;;;30.70;17.40;;;1.70;99.90;;;;;;5082484;28;20184;-75
2020/12/08 05:00:45;;;;;;;25.00;15.27;;;1.60;99.90;;;;;;5079313;28;20204;-75
2020/12/08 05:03:11;;;;;;;32.80;17.47;;;1.60;99.90;;;;;;5078966;28;20469;-74
2020/12/08 05:05:43;;;;;;;33.83;18.70;;;1.60;99.90;;;;;;5080188;28;20187;-75
2020/12/08 05:08:12;;;;;;;29.87;16.20;;;1.60;99.90;;;;;;5080012;28;20692;-75
2020/12/08 05:10:39;;;;;;;32.03;16.70;;;1.70;99.90;;;;;;5078138;28;20539;-74
2020/12/08 05:13:15;;;;;;;29.63;16.67;;;1.70;99.90;;;;;;5080542;28;20429;-74
2020/12/08 05:15:40;;;;;;;27.07;16.07;;;1.70;99.90;;;;;;5082087;28;20772;-74
2020/12/08 05:18:11;;;;;;;24.63;14.70;;;1.80;99.90;;;;;;5079122;28;20426;-74
2020/12/08 05:20:40;;;;;;;26.20;14.57;;;1.80;99.90;;;;;;5079362;28;20210;-74
2020/12/08 05:23:05;;;;;;;26.43;15.17;;;1.80;99.90;;;;;;5083474;28;20466;-75
2020/12/08 05:25:31;;;;;;;29.80;17.47;;;1.80;99.90;;;;;;5081986;28;20881;-75
2020/12/08 05:27:59;;;;;;;27.70;17.67;;;1.80;99.90;;;;;;5079629;28;20185;-74
2020/12/08 05:30:25;;;;;;;32.80;17.50;;;1.80;99.90;;;;;;5080814;28;20436;-74
2020/12/08 05:32:52;;;;;;;34.43;18.03;;;1.80;99.90;;;;;;5084283;28;20825;-74
2020/12/08 05:35:20;;;;;;;30.27;17.37;;;1.80;99.90;;;;;;5082788;28;20413;-75
2020/12/08 05:37:47;;;;;;;30.97;17.10;;;1.70;99.90;;;;;;5081030;28;20427;-74
2020/12/08 05:40:24;;;;;;;32.07;17.97;;;1.70;99.90;;;;;;5079540;28;20953;-74
2020/12/08 05:42:52;;;;;;;31.30;16.47;;;1.70;99.90;;;;;;5077512;28;20473;-75
2020/12/08 05:45:19;;;;;;;27.40;17.47;;;1.70;99.90;;;;;;5082384;28;20479;-75
2020/12/08 05:47:51;;;;;;;31.40;15.77;;;1.70;99.90;;;;;;5082544;28;20822;-75
2020/12/08 05:50:19;;;;;;;33.57;20.00;;;1.70;99.90;;;;;;5081498;28;20435;-75
2020/12/08 05:52:52;;;;;;;32.50;19.40;;;1.70;99.90;;;;;;5084739;28;20833;-75
2020/12/08 05:55:21;;;;;;;34.40;18.30;;;1.80;99.90;;;;;;5083500;28;20481;-75
2020/12/08 05:57:47;;;;;;;30.20;17.20;;;1.80;99.90;;;;;;5082116;28;20933;-74
2020/12/08 06:00:23;;;;;;;31.90;18.43;;;1.80;99.90;;;;;;5085141;28;20535;-74
2020/12/08 06:02:50;;;;;;;29.53;17.97;;;1.90;99.90;;;;;;5080041;28;20443;-75
2020/12/08 06:05:31;;;;;;;27.73;17.17;;;1.80;99.90;;;;;;5085988;28;20897;-75
2020/12/08 06:07:58;;;;;;;32.40;17.87;;;1.90;99.90;;;;;;5081530;28;20483;-74
2020/12/08 06:10:24;;;;;;;33.53;17.50;;;1.90;99.90;;;;;;5086690;28;20842;-75
2020/12/08 06:13:01;;;;;;;28.77;17.03;;;1.90;99.90;;;;;;5084798;28;20437;-75
2020/12/08 06:15:40;;;;;;;31.07;17.10;;;1.90;99.90;;;;;;5080198;28;20423;-75
2020/12/08 06:18:07;;;;;;;31.90;18.67;;;1.90;99.90;;;;;;5083274;28;20703;-75
2020/12/08 06:20:36;;;;;;;29.73;17.73;;;1.90;99.90;;;;;;5082087;28;20436;-75
2020/12/08 06:23:02;;;;;;;36.20;19.93;;;2.00;99.90;;;;;;5083354;28;20433;-74
2020/12/08 06:25:28;;;;;;;34.93;18.70;;;2.00;99.90;;;;;;5083900;28;20625;-75
2020/12/08 06:27:59;;;;;;;30.20;17.63;;;2.10;99.90;;;;;;5084886;28;20430;-74
2020/12/08 06:30:25;;;;;;;30.60;18.30;;;2.10;99.90;;;;;;5084723;28;20425;-75
2020/12/08 06:32:50;;;;;;;39.27;19.53;;;2.10;99.90;;;;;;5080442;28;20499;-75
2020/12/08 06:35:17;;;;;;;29.63;17.83;;;2.00;99.90;;;;;;5085101;28;20255;-75
2020/12/08 06:37:53;;;;;;;38.47;19.47;;;2.10;99.90;;;;;;5081941;28;20207;-75
2020/12/08 06:40:25;;;;;;;37.23;20.27;;;2.10;99.90;;;;;;5081994;28;20807;-75
2020/12/08 06:42:51;;;;;;;42.87;25.13;;;2.10;99.90;;;;;;5081879;28;20473;-75
2020/12/08 06:45:23;;;;;;;37.43;20.90;;;2.10;99.90;;;;;;5083928;28;20408;-74
2020/12/08 06:47:49;;;;;;;32.13;18.63;;;2.10;99.90;;;;;;5083651;28;20442;-74
2020/12/08 06:50:29;;;;;;;32.80;19.73;;;2.10;99.90;;;;;;5083925;28;20412;-74
2020/12/08 06:52:56;;;;;;;38.03;19.13;;;2.00;99.90;;;;;;5083364;28;20774;-75
2020/12/08 06:55:22;;;;;;;33.80;18.67;;;1.90;99.90;;;;;;5085018;28;20509;-75
2020/12/08 06:57:48;;;;;;;29.90;16.60;;;1.90;99.90;;;;;;5080737;28;20411;-75
2020/12/08 07:00:14;;;;;;;34.90;18.90;;;1.80;99.90;;;;;;5082628;28;20796;-75
2020/12/08 07:02:48;;;;;;;34.03;18.80;;;1.80;99.90;;;;;;5081899;28;20259;-74
2020/12/08 07:05:19;;;;;;;33.90;19.47;;;1.80;99.90;;;;;;5084509;28;20176;-75
2020/12/08 07:07:46;;;;;;;28.80;17.10;;;1.80;99.90;;;;;;5080450;28;20427;-75
2020/12/08 07:10:11;;;;;;;36.67;19.50;;;1.80;99.90;;;;;;5083259;28;20968;-75
2020/12/08 07:12:45;;;;;;;36.00;20.07;;;1.70;99.90;;;;;;5083416;28;20400;-75
2020/12/08 07:15:22;;;;;;;30.67;17.63;;;1.80;99.90;;;;;;5080758;28;20191;-75
2020/12/08 07:18:03;;;;;;;38.53;20.43;;;1.70;99.90;;;;;;5082721;28;20973;-75
2020/12/08 07:20:29;;;;;;;34.33;18.17;;;1.70;99.90;;;;;;5081196;28;20459;-76
2020/12/08 07:22:55;;;;;;;32.53;17.30;;;1.70;99.90;;;;;;5081543;28;20476;-75
2020/12/08 07:25:22;;;;;;;46.80;18.00;;;1.70;99.90;;;;;;5082708;28;20402;-75
2020/12/08 07:27:50;;;;;;;31.43;18.40;;;1.60;99.90;;;;;;5084004;28;20247;-75
2020/12/08 07:30:22;;;;;;;36.67;20.30;;;1.60;99.90;;;;;;5081876;28;20409;-75
2020/12/08 07:32:47;;;;;;;41.37;21.70;;;1.60;99.90;;;;;;5085808;28;20503;-75
2020/12/08 07:35:23;;;;;;;39.67;21.63;;;1.60;99.90;;;;;;5084678;28;20584;-75
2020/12/08 07:37:55;;;;;;;40.40;21.93;;;1.50;99.90;;;;;;5080412;28;20190;-74
2020/12/08 07:40:21;;;;;;;38.57;19.00;;;1.60;99.90;;;;;;5080882;28;20460;-74
2020/12/08 07:42:51;;;;;;;37.17;20.43;;;1.60;99.90;;;;;;5080668;28;20554;-75
2020/12/08 07:45:18;;;;;;;30.80;17.90;;;1.60;99.90;;;;;;5084134;28;20932;-74
2020/12/08 07:47:50;;;;;;;34.43;17.20;;;1.60;99.90;;;;;;5083066;28;20903;-75
2020/12/08 07:50:24;;;;;;;38.37;18.93;;;1.70;99.90;;;;;;5083539;28;20862;-74
2020/12/08 07:53:02;;;;;;;32.77;18.93;;;1.60;99.90;;;;;;5081113;28;20774;-74
2020/12/08 07:55:29;;;;;;;35.47;18.70;;;1.50;99.90;;;;;;5082772;28;20435;-74
2020/12/08 07:57:54;;;;;;;36.20;20.83;;;1.50;99.90;;;;;;5079427;28;20411;-74
2020/12/08 08:00:20;;;;;;;36.37;19.50;;;1.50;99.90;;;;;;5083686;28;21015;-75
2020/12/08 08:02:46;;;;;;;36.17;19.20;;;1.50;99.90;;;;;;5078555;28;20440;-75
2020/12/08 08:05:12;;;;;;;41.97;20.90;;;1.50;99.90;;;;;;5082808;28;20273;-75
2020/12/08 08:07:37;;;;;;;36.23;18.60;;;1.50;99.90;;;;;;5084555;28;20221;-75
2020/12/08 08:10:03;;;;;;;40.43;19.07;;;1.50;99.90;;;;;;5080552;28;20438;-73
2020/12/08 08:12:28;;;;;;;33.93;17.20;;;1.50;99.90;;;;;;5082339;28;20653;-75
2020/12/08 08:14:55;;;;;;;33.23;18.57;;;1.50;99.90;;;;;;5080680;28;20195;-75
2020/12/08 08:17:21;;;;;;;36.73;19.73;;;1.50;99.90;;;;;;5082126;28;20178;-74
2020/12/08 08:19:46;;;;;;;35.40;17.00;;;1.40;99.90;;;;;;5076780;28;20981;-75
2020/12/08 08:22:12;;;;;;;33.17;17.50;;;1.40;99.90;;;;;;5082430;28;20297;-75
2020/12/08 08:24:37;;;;;;;30.40;17.20;;;1.40;99.90;;;;;;5082523;28;20238;-75
2020/12/08 08:27:03;;;;;;;39.37;20.37;;;1.40;99.90;;;;;;5080665;28;20181;-75
2020/12/08 08:29:28;;;;;;;34.93;18.33;;;1.50;99.90;;;;;;5080127;28;20209;-75
2020/12/08 08:31:53;;;;;;;35.03;18.70;;;1.50;99.90;;;;;;5079842;28;20569;-75
2020/12/08 08:34:19;;;;;;;34.40;17.90;;;1.50;99.90;;;;;;5077692;28;20182;-74
2020/12/08 08:36:55;;;;;;;32.17;17.50;;;1.50;99.90;;;;;;5080972;28;20263;-74
2020/12/08 08:39:21;;;;;;;32.03;18.97;;;1.60;99.90;;;;;;5079299;28;20178;-74
2020/12/08 08:41:47;;;;;;;32.37;19.00;;;1.60;99.90;;;;;;5081315;28;20453;-76
2020/12/08 08:44:13;;;;;;;36.10;18.83;;;1.70;99.90;;;;;;5081960;28;20457;-74
2020/12/08 08:46:42;;;;;;;35.87;18.67;;;1.80;99.90;;;;;;5080854;28;20513;-75
2020/12/08 08:49:13;;;;;;;32.30;18.17;;;1.90;99.90;;;;;;5082885;28;20181;-75
2020/12/08 08:51:40;;;;;;;33.00;18.23;;;2.10;99.90;;;;;;5079874;28;20832;-74
2020/12/08 08:54:06;;;;;;;38.03;19.67;;;2.20;99.90;;;;;;5080814;28;20444;-74
2020/12/08 08:56:31;;;;;;;35.93;19.43;;;2.50;99.90;;;;;;5080242;28;20406;-75
2020/12/08 08:58:57;;;;;;;37.63;20.33;;;2.70;99.90;;;;;;5080106;28;20667;-75
2020/12/08 09:01:22;;;;;;;36.43;20.97;;;2.90;99.90;;;;;;5081374;28;20204;-75
2020/12/08 09:03:48;;;;;;;38.63;20.67;;;3.00;99.90;;;;;;5078252;28;20188;-75
2020/12/08 09:06:13;;;;;;;36.67;21.20;;;3.30;99.90;;;;;;5080790;28;20176;-75
2020/12/08 09:08:39;;;;;;;30.10;17.77;;;3.90;99.90;;;;;;5082695;28;20419;-75
2020/12/08 09:11:05;;;;;;;31.63;17.83;;;4.90;99.90;;;;;;5076210;28;20207;-75
2020/12/08 09:13:31;;;;;;;33.17;19.90;;;5.50;99.90;;;;;;5081191;28;20167;-75
2020/12/08 09:15:57;;;;;;;38.03;17.63;;;6.20;99.90;;;;;;5081509;28;20801;-75
2020/12/08 09:18:22;;;;;;;35.90;21.43;;;6.60;99.90;;;;;;5081353;28;20753;-75
2020/12/08 09:20:48;;;;;;;34.13;21.90;;;6.80;99.90;;;;;;5082506;28;20291;-75
2020/12/08 09:23:13;;;;;;;34.47;19.30;;;7.00;99.90;;;;;;5082505;28;20566;-75
2020/12/08 09:25:39;;;;;;;34.43;20.47;;;7.40;99.90;;;;;;5080467;28;20178;-75
2020/12/08 09:28:05;;;;;;;30.80;18.60;;;7.80;99.90;;;;;;5080547;28;20185;-75
2020/12/08 09:30:30;;;;;;;40.57;20.87;;;7.80;99.90;;;;;;5078841;28;20200;-75
2020/12/08 09:32:56;;;;;;;35.40;19.23;;;7.90;99.90;;;;;;5086212;28;20228;-76
2020/12/08 09:35:21;;;;;;;40.73;21.70;;;8.00;99.90;;;;;;5082341;28;20191;-75
2020/12/08 09:37:47;;;;;;;37.07;21.67;;;7.60;99.90;;;;;;5080122;28;20192;-76
2020/12/08 09:40:12;;;;;;;33.43;20.03;;;7.60;99.90;;;;;;5081308;28;20219;-75
2020/12/08 09:42:40;;;;;;;36.30;19.97;;;7.60;99.90;;;;;;5079676;28;20228;-75
2020/12/08 09:45:06;;;;;;;37.60;20.33;;;7.80;99.90;;;;;;5079204;28;20319;-75
2020/12/08 09:47:32;;;;;;;41.83;20.30;;;7.90;99.90;;;;;;5085911;28;20468;-75
2020/12/08 09:49:58;;;;;;;41.80;21.40;;;7.60;99.90;;;;;;5082048;28;20508;-75
2020/12/08 09:52:26;;;;;;;28.37;18.37;;;7.50;99.90;;;;;;5080938;28;20181;-75
2020/12/08 09:54:51;;;;;;;35.03;20.30;;;7.60;99.90;;;;;;5082671;28;20214;-75
2020/12/08 09:57:17;;;;;;;40.17;20.40;;;7.70;99.90;;;;;;5077667;28;20603;-75
2020/12/08 09:59:43;;;;;;;30.63;18.30;;;7.50;99.90;;;;;;5081959;28;20204;-75
2020/12/08 10:02:08;;;;;;;32.57;18.87;;;7.40;99.90;;;;;;5083993;28;20453;-75
2020/12/08 10:04:34;;;;;;;33.07;19.20;;;7.60;99.90;;;;;;5083849;28;20177;-74
2020/12/08 10:06:59;;;;;;;26.50;18.10;;;7.60;99.90;;;;;;5081798;28;20210;-75
2020/12/08 10:09:25;;;;;;;31.60;19.33;;;7.60;99.90;;;;;;5079399;28;20198;-75
2020/12/08 10:11:51;;;;;;;34.10;19.77;;;7.70;99.90;;;;;;5081819;28;20242;-75
2020/12/08 10:14:16;;;;;;;31.40;18.70;;;7.80;99.90;;;;;;5077642;28;20590;-75
2020/12/08 10:16:42;;;;;;;34.37;19.20;;;8.10;99.90;;;;;;5081775;28;20527;-76
2020/12/08 10:19:07;;;;;;;34.87;18.50;;;8.20;99.90;;;;;;5082158;28;20207;-75
2020/12/08 10:21:34;;;;;;;27.40;17.53;;;8.40;99.90;;;;;;5078368;28;20329;-73
2020/12/08 10:24:00;;;;;;;33.40;19.90;;;8.50;99.90;;;;;;5080920;28;20269;-75
2020/12/08 10:26:25;;;;;;;27.87;18.20;;;8.50;99.90;;;;;;5080182;28;21002;-74
2020/12/08 10:28:51;;;;;;;35.53;20.17;;;8.20;99.90;;;;;;5077206;28;20186;-75
2020/12/08 10:31:18;;;;;;;30.93;18.67;;;8.30;99.90;;;;;;5079720;28;20200;-75
2020/12/08 10:33:45;;;;;;;32.20;20.43;;;8.40;99.90;;;;;;5081096;28;20221;-75
2020/12/08 10:36:11;;;;;;;37.57;19.90;;;8.50;99.90;;;;;;5079729;28;20471;-75
2020/12/08 10:38:37;;;;;;;38.60;20.20;;;8.30;99.90;;;;;;5082952;28;20425;-75
2020/12/08 10:41:03;;;;;;;39.90;21.73;;;8.30;99.90;;;;;;5083890;28;20509;-75
2020/12/08 10:43:29;;;;;;;32.87;18.67;;;8.40;99.90;;;;;;5082562;28;20395;-76
2020/12/08 10:45:55;;;;;;;32.07;18.70;;;8.30;99.90;;;;;;5083943;28;20181;-75
2020/12/08 10:48:20;;;;;;;29.87;19.20;;;8.40;99.90;;;;;;5088024;28;20460;-75
2020/12/08 10:50:46;;;;;;;34.17;22.13;;;8.40;99.90;;;;;;5082234;28;20698;-75
2020/12/08 10:53:12;;;;;;;26.80;17.43;;;8.40;99.90;;;;;;5082228;28;20197;-75
2020/12/08 10:55:38;;;;;;;37.67;20.20;;;8.30;99.90;;;;;;5080615;28;20179;-77
2020/12/08 10:58:03;;;;;;;30.37;19.03;;;8.60;99.90;;;;;;5085220;28;20981;-75
2020/12/08 11:00:32;;;;;;;33.67;19.10;;;8.90;99.90;;;;;;5082850;28;20192;-75
2020/12/08 11:03:02;;;;;;;31.67;18.60;;;9.00;99.90;;;;;;5083040;28;20210;-75
2020/12/08 11:05:27;;;;;;;29.40;18.93;;;8.60;99.90;;;;;;5083768;28;20462;-75
2020/12/08 11:07:53;;;;;;;27.83;19.33;;;8.50;99.90;;;;;;5083610;28;20877;-75
2020/12/08 11:10:19;;;;;;;31.97;18.17;;;8.20;99.90;;;;;;5081534;28;20791;-75
2020/12/08 11:12:44;;;;;;;30.37;17.77;;;8.20;99.90;;;;;;5084055;28;20193;-75
2020/12/08 11:15:10;;;;;;;28.00;19.10;;;8.10;99.90;;;;;;5082977;28;20208;-75
2020/12/08 11:17:37;;;;;;;35.60;18.30;;;8.00;99.90;;;;;;5087899;28;20186;-75
2020/12/08 11:20:05;;;;;;;33.93;20.00;;;8.10;99.90;;;;;;5079269;28;20502;-75
2020/12/08 11:22:32;;;;;;;30.43;18.50;;;7.90;99.90;;;;;;5085025;28;20468;-75
2020/12/08 11:24:58;;;;;;;28.13;18.10;;;7.80;99.90;;;;;;5079248;28;20493;-75
2020/12/08 11:27:24;;;;;;;24.90;16.50;;;7.90;99.90;;;;;;5084272;28;20794;-75
2020/12/08 11:29:49;;;;;;;33.50;19.07;;;7.60;99.90;;;;;;5079921;28;20459;-75
2020/12/08 11:32:15;;;;;;;33.00;18.13;;;7.60;99.90;;;;;;5083134;28;20536;-75
2020/12/08 11:34:41;;;;;;;31.30;19.23;;;7.60;99.90;;;;;;5081505;28;20675;-75
2020/12/08 11:37:07;;;;;;;32.47;18.77;;;7.50;99.90;;;;;;5082617;28;20444;-75
2020/12/08 11:39:33;;;;;;;28.27;17.77;;;7.20;99.90;;;;;;5083060;28;20677;-75
2020/12/08 11:41:59;;;;;;;30.80;18.93;;;7.00;99.90;;;;;;5082079;28;20638;-75
2020/12/08 11:44:24;;;;;;;29.87;17.80;;;6.90;99.90;;;;;;5080897;28;20504;-75
2020/12/08 11:46:53;;;;;;;27.67;17.43;;;6.80;99.90;;;;;;5085338;28;20173;-75
2020/12/08 11:49:19;;;;;;;30.20;18.30;;;6.90;99.90;;;;;;5083594;28;20190;-75
2020/12/08 11:51:45;;;;;;;29.40;18.00;;;6.90;99.90;;;;;;5077845;28;20434;-75
2020/12/08 11:54:11;;;;;;;28.00;18.30;;;6.90;99.90;;;;;;5082814;28;20449;-75
2020/12/08 11:56:36;;;;;;;26.17;16.67;;;7.00;99.90;;;;;;5081732;28;20768;-75
2020/12/08 11:59:02;;;;;;;27.63;15.73;;;7.00;99.90;;;;;;5079514;28;20217;-75
2020/12/08 12:01:28;;;;;;;27.23;16.90;;;7.00;99.90;;;;;;5081866;28;20201;-75
2020/12/08 12:03:54;;;;;;;25.03;15.23;;;6.90;99.90;;;;;;5080153;28;20184;-75
2020/12/08 12:06:19;;;;;;;30.03;17.97;;;6.90;99.90;;;;;;5083795;28;20242;-73
2020/12/08 12:08:45;;;;;;;23.53;14.37;;;6.90;99.90;;;;;;5080635;28;20427;-75
2020/12/08 12:11:11;;;;;;;27.80;16.93;;;6.70;99.90;;;;;;5081427;28;20214;-74
2020/12/08 12:13:36;;;;;;;30.13;16.20;;;6.40;99.90;;;;;;5082047;28;20654;-75
2020/12/08 12:16:02;;;;;;;25.70;14.87;;;6.40;99.90;;;;;;5078694;28;20236;-75
2020/12/08 12:18:27;;;;;;;25.10;15.47;;;6.40;99.90;;;;;;5081296;28;20851;-76
2020/12/08 12:20:53;;;;;;;28.27;16.63;;;6.40;99.90;;;;;;5081616;28;20544;-75
2020/12/08 12:23:18;;;;;;;23.33;15.10;;;6.40;99.90;;;;;;5079849;28;20204;-75
2020/12/08 12:25:44;;;;;;;19.50;13.20;;;6.40;99.90;;;;;;5078589;28;20196;-74
2020/12/08 12:28:10;;;;;;;26.43;15.80;;;6.40;99.90;;;;;;5082182;28;20230;-74
2020/12/08 12:30:36;;;;;;;25.13;13.40;;;6.30;99.90;;;;;;5081445;28;20506;-75
2020/12/08 12:33:01;;;;;;;19.60;13.50;;;6.30;99.90;;;;;;5080212;28;20189;-74